Skip Navigation Links
NOAA logo - Click to go to the NOAA homepage
NOAA's National Weather Service
Alaska Aviation Weather Unit
  NWS logo - Click to go to the NWS homepage
Left Navbar Graphic     22 AKDT = 06 GMT

   
NOAA is celebrating 200 years of science, service, and stewardship. Visit the NOAA 200th celebration Web site to learn more.
USA.gov is the U.S. Government's official Web portal to all Federal, state and local government Web resources and services.
Facebook
NWS on Facebook

Important Change Regarding the AAWU Web Presence

 

Over the last several months, the AAWU has been working to navigate its webpages to a nationally supported server. Security, as well as other needs, have necessitated the change.  We have been given an extension for the site changeover while we diligently work at addressing feedback received. As of July 14, 2017, aawu.arh.noaa.gov will be discontinued. The new AAWU web address is weather.gov/aawu. It is now live and will run in-parallel with the old site until it is discontinued on July 14, 2017. Please continue to send any feedback or questions regarding the new webpages to nws.ar.aawu.webauthors@noaa.gov.  Thank you for your patience during this time of transition.
AAWU Home :: Display TAF Add Bookmark
TAF PAUN 260534Z 2606/2706 30008KT 6SM BR VCSH SCT007 BKN020 OVC035
     FM262100 33010KT P6SM VCSH SCT025 BKN035 OVC050=

SPECI PAUN 260010Z AUTO 26007KT 10SM FEW011 BKN023 OVC060 15/12 A2987 RMK AO2= SPECI PAUN 260023Z AUTO 27008KT 10SM BKN011 OVC023 15/12 A2987 RMK AO2= METAR PAUN 260056Z AUTO 26007KT 10SM BKN011 OVC023 15/12 A2987 RMK AO2 SLP118 T01500122= SPECI PAUN 260129Z AUTO 28005KT 10SM FEW013 BKN050 15/12 A2986 RMK AO2= METAR PAUN 260156Z AUTO 25006KT 10SM BKN011 BKN050 14/12 A2985 RMK AO2 SLP114 T01440117= SPECI PAUN 260220Z AUTO 25008KT 10SM -RA SCT011 BKN050 15/12 A2985 RMK AO2 RAB11 P0000= SPECI PAUN 260235Z AUTO 26008KT 10SM BKN011 OVC050 15/12 A2985 RMK AO2 RAB11E22 P0000= METAR PAUN 260356Z AUTO 27009KT 10SM BKN013 OVC050 14/12 A2984 RMK AO2 SLP110 T01440117= SPECI PAUN 260440Z AUTO 29006KT 10SM OVC015 14/12 A2984 RMK AO2= METAR PAUN 260456Z AUTO 28006KT 10SM SCT014 BKN021 OVC050 14/12 A2984 RMK AO2 SLP108 T01440117= SPECI PAUN 260510Z AUTO 30006KT 10SM BKN012 BKN018 OVC024 14/12 A2984 RMK AO2= SPECI PAUN 260547Z AUTO 29006KT 10SM SCT013 OVC020 14/12 A2983 RMK AO2= METAR PAUN 260556Z AUTO 29007KT 10SM BKN015 OVC020 14/12 A2983 RMK AO2 SLP106 60000 T01440117 10150 20144 56007=
 Alaska TAF Map

NOAA's National Weather Service
Alaska Aviation Weather Unit
6930 Sand Lake Road
Anchorage, AK 99502-1845
Disclaimer
Credits
Glossary
Privacy Policy
About Us
Career Opportunities
Contact AAWU Internet Services Site last modified: April, 17th 2012